createdAt,value
2018-06-09T00:00:28.399Z,22.34
2018-06-09T00:02:56.719Z,22.34
2018-06-09T00:05:25.080Z,22.34
2018-06-09T00:07:53.407Z,22.34
2018-06-09T00:10:21.735Z,22.34
2018-06-09T00:12:50.064Z,22.34
2018-06-09T00:15:18.375Z,22.35
2018-06-09T00:17:46.709Z,22.35
2018-06-09T00:20:15.132Z,22.38
2018-06-09T00:22:43.452Z,22.37
2018-06-09T00:25:11.800Z,22.39
2018-06-09T00:27:40.136Z,22.39
2018-06-09T00:30:08.472Z,22.40
2018-06-09T00:32:36.875Z,22.38
2018-06-09T00:35:05.247Z,22.35
2018-06-09T00:37:33.584Z,22.34
2018-06-09T00:40:01.903Z,22.33
2018-06-09T00:42:30.398Z,22.31
2018-06-09T00:44:58.748Z,22.37
2018-06-09T00:47:27.112Z,22.39
2018-06-09T00:49:55.426Z,22.40
2018-06-09T00:52:23.811Z,22.40
2018-06-09T00:54:52.131Z,22.33
2018-06-09T00:57:20.444Z,22.31
2018-06-09T00:59:48.874Z,22.22
2018-06-09T01:02:17.248Z,22.23
2018-06-09T01:04:45.642Z,22.23
2018-06-09T01:07:14.014Z,22.20
2018-06-09T01:09:42.323Z,22.19
2018-06-09T01:12:10.651Z,22.20
2018-06-09T01:14:39.371Z,22.21
2018-06-09T01:17:07.731Z,22.21
2018-06-09T01:19:36.167Z,22.25
2018-06-09T01:22:04.496Z,22.24
2018-06-09T01:24:32.785Z,22.28
2018-06-09T01:27:01.084Z,22.27
2018-06-09T01:29:29.414Z,22.30
2018-06-09T01:31:57.810Z,22.36
2018-06-09T01:34:26.167Z,22.39
2018-06-09T01:36:54.482Z,22.35
2018-06-09T01:39:22.805Z,22.31
2018-06-09T01:41:51.160Z,22.30
2018-06-09T01:44:19.484Z,22.28
2018-06-09T01:46:47.824Z,22.23
2018-06-09T01:49:16.148Z,22.17
2018-06-09T01:51:44.456Z,22.19
2018-06-09T01:54:12.792Z,22.21
2018-06-09T01:56:41.155Z,22.21
2018-06-09T01:59:09.595Z,22.14
2018-06-09T02:01:37.927Z,22.12
2018-06-09T02:04:06.283Z,22.08
2018-06-09T02:06:34.603Z,22.06
2018-06-09T02:09:03.080Z,22.03
2018-06-09T02:11:31.386Z,22.01
2018-06-09T02:13:59.728Z,22.00
2018-06-09T02:16:28.073Z,21.99
2018-06-09T02:18:56.387Z,21.98
2018-06-09T02:21:24.726Z,21.95
2018-06-09T02:23:53.064Z,21.90
2018-06-09T02:26:21.396Z,21.87
2018-06-09T02:28:49.766Z,21.88
2018-06-09T02:31:18.079Z,21.89
2018-06-09T02:33:46.886Z,21.85
2018-06-09T02:36:15.225Z,21.84
2018-06-09T02:38:43.551Z,21.83
2018-06-09T02:41:11.879Z,21.86
2018-06-09T02:43:40.238Z,21.85
2018-06-09T02:46:08.556Z,21.83
2018-06-09T02:48:36.895Z,21.79
2018-06-09T02:51:05.224Z,21.76
2018-06-09T02:53:33.548Z,21.73
2018-06-09T02:56:01.866Z,21.68
2018-06-09T02:58:30.180Z,21.68
2018-06-09T03:00:58.581Z,21.70
2018-06-09T03:03:26.904Z,21.67
2018-06-09T03:05:55.232Z,21.65
2018-06-09T03:08:23.638Z,21.65
2018-06-09T03:10:51.974Z,21.66
2018-06-09T03:13:20.296Z,21.65
2018-06-09T03:15:48.648Z,21.66
2018-06-09T03:18:17.196Z,21.66
2018-06-09T03:20:45.567Z,21.66
2018-06-09T03:23:13.976Z,21.66
2018-06-09T03:25:42.347Z,21.65
2018-06-09T03:28:10.679Z,21.64
2018-06-09T03:30:39.006Z,21.69
2018-06-09T03:33:07.315Z,21.71
2018-06-09T03:35:36.015Z,21.70
2018-06-09T03:38:04.344Z,21.72
2018-06-09T03:40:32.699Z,21.72
2018-06-09T03:43:01.112Z,21.71
2018-06-09T03:45:29.410Z,21.70
2018-06-09T03:47:57.732Z,21.69
2018-06-09T03:50:26.067Z,21.70
2018-06-09T03:52:54.422Z,21.73
2018-06-09T03:55:22.783Z,21.71
2018-06-09T03:57:51.143Z,21.69
2018-06-09T04:00:19.429Z,21.70
2018-06-09T04:02:47.758Z,21.70
2018-06-09T04:05:16.096Z,21.73
2018-06-09T04:07:44.471Z,21.72
2018-06-09T04:10:12.784Z,21.72
2018-06-09T04:12:41.255Z,21.70
2018-06-09T04:15:09.672Z,21.71
2018-06-09T04:17:37.974Z,21.70
2018-06-09T04:20:06.367Z,21.70
2018-06-09T04:22:35.581Z,21.68
2018-06-09T04:25:03.999Z,21.66
2018-06-09T04:27:32.387Z,21.64
2018-06-09T04:30:00.719Z,21.63
2018-06-09T04:32:29.116Z,21.62
2018-06-09T04:34:57.427Z,21.62
2018-06-09T04:37:25.828Z,21.66
2018-06-09T04:39:54.248Z,21.64
2018-06-09T04:42:22.544Z,21.65
2018-06-09T04:44:50.870Z,21.64
2018-06-09T04:47:19.213Z,21.64
2018-06-09T04:49:47.531Z,21.68
2018-06-09T04:52:15.954Z,21.69
2018-06-09T04:54:44.249Z,21.70
2018-06-09T04:57:12.591Z,21.68
2018-06-09T04:59:40.944Z,21.67
2018-06-09T05:02:09.316Z,21.67
2018-06-09T05:04:37.664Z,21.69
2018-06-09T05:07:06.052Z,21.68
2018-06-09T05:09:34.368Z,21.68
2018-06-09T05:12:02.959Z,21.70
2018-06-09T05:14:31.291Z,21.70
2018-06-09T05:17:00.183Z,21.71
2018-06-09T05:19:28.600Z,21.69
2018-06-09T05:21:56.911Z,21.69
2018-06-09T05:24:25.834Z,21.67
2018-06-09T05:26:54.151Z,21.65
2018-06-09T05:29:22.557Z,21.67
2018-06-09T05:31:50.988Z,21.66
2018-06-09T05:34:19.355Z,21.65
2018-06-09T05:36:47.776Z,21.64
2018-06-09T05:39:16.115Z,21.61
2018-06-09T05:41:44.436Z,21.61
2018-06-09T05:44:12.774Z,21.61
2018-06-09T05:46:41.147Z,21.59
2018-06-09T05:49:09.537Z,21.58
2018-06-09T05:51:37.968Z,21.60
2018-06-09T05:54:06.325Z,21.62
2018-06-09T05:56:34.727Z,21.63
2018-06-09T05:59:03.180Z,21.66
2018-06-09T06:01:32.102Z,21.67
2018-06-09T06:04:00.539Z,21.69
2018-06-09T06:06:28.915Z,21.68
2018-06-09T06:08:57.262Z,21.66
2018-06-09T06:11:25.572Z,21.63
2018-06-09T06:13:54.179Z,21.61
2018-06-09T06:16:22.556Z,21.63
2018-06-09T06:18:50.976Z,21.63
2018-06-09T06:21:19.383Z,21.64
2018-06-09T06:23:47.797Z,21.64
2018-06-09T06:26:16.232Z,21.64
2018-06-09T06:28:44.561Z,21.64
2018-06-09T06:31:12.963Z,21.65
2018-06-09T06:33:41.424Z,21.69
2018-06-09T06:36:09.799Z,21.71
2018-06-09T06:38:38.143Z,21.73
2018-06-09T06:41:06.712Z,21.76
2018-06-09T06:43:35.007Z,21.76
2018-06-09T06:46:03.410Z,21.77
2018-06-09T06:48:31.779Z,21.78
2018-06-09T06:51:00.176Z,21.82
2018-06-09T06:53:28.511Z,21.86
2018-06-09T06:55:56.855Z,21.89
2018-06-09T06:58:25.183Z,21.93
2018-06-09T07:00:53.522Z,21.94
2018-06-09T07:03:21.859Z,21.92
2018-06-09T07:05:50.240Z,21.91
2018-06-09T07:08:18.660Z,21.90
2018-06-09T07:10:46.978Z,21.91
2018-06-09T07:13:15.274Z,21.94
2018-06-09T07:15:43.608Z,21.95
2018-06-09T07:18:12.015Z,21.97
2018-06-09T07:20:40.349Z,22.01
2018-06-09T07:23:08.727Z,22.05
2018-06-09T07:25:43.599Z,22.10
2018-06-09T07:28:11.984Z,22.07
2018-06-09T07:30:40.372Z,22.07
2018-06-09T07:33:08.751Z,22.08
2018-06-09T07:35:37.116Z,22.01
2018-06-09T07:38:05.547Z,22.07
2018-06-09T07:40:33.916Z,22.07
2018-06-09T07:43:02.235Z,22.07
2018-06-09T07:45:30.690Z,22.15
2018-06-09T07:47:59.676Z,22.24
2018-06-09T07:50:28.059Z,22.29
2018-06-09T07:52:56.459Z,22.32
2018-06-09T07:55:24.821Z,22.35
2018-06-09T07:57:53.131Z,22.40
2018-06-09T08:00:21.468Z,22.44
2018-06-09T08:02:49.870Z,22.51
2018-06-09T08:05:18.236Z,22.56
2018-06-09T08:07:46.614Z,22.60
2018-06-09T08:10:15.477Z,22.59
2018-06-09T08:12:43.844Z,22.52
2018-06-09T08:15:12.265Z,22.53
2018-06-09T08:17:40.633Z,22.50
2018-06-09T08:20:08.963Z,22.52
2018-06-09T08:22:37.329Z,22.54
2018-06-09T08:25:05.671Z,22.55
2018-06-09T08:27:34.112Z,22.58
2018-06-09T08:30:02.517Z,22.62
2018-06-09T08:32:30.852Z,22.67
2018-06-09T08:34:59.211Z,22.65
2018-06-09T08:37:27.551Z,22.69
2018-06-09T08:39:55.879Z,22.74
2018-06-09T08:42:24.259Z,22.76
2018-06-09T08:44:52.631Z,22.77
2018-06-09T08:47:21.119Z,22.79
2018-06-09T08:49:49.480Z,22.79
2018-06-09T08:52:17.855Z,22.84
2018-06-09T08:54:46.200Z,22.88
2018-06-09T08:57:14.553Z,22.92
2018-06-09T08:59:42.898Z,22.94
2018-06-09T09:02:11.259Z,22.93
2018-06-09T09:04:39.625Z,22.93
2018-06-09T09:07:08.052Z,23.02
2018-06-09T09:09:36.456Z,23.07
2018-06-09T09:12:04.860Z,23.10
2018-06-09T09:14:33.272Z,23.18
2018-06-09T09:17:01.589Z,23.23
2018-06-09T09:19:30.029Z,23.27
2018-06-09T09:21:58.379Z,23.36
2018-06-09T09:24:26.776Z,23.37
2018-06-09T09:26:55.184Z,23.44
2018-06-09T09:29:23.527Z,23.44
2018-06-09T09:31:51.894Z,23.50
2018-06-09T09:34:20.235Z,23.55
2018-06-09T09:36:49.731Z,23.60
2018-06-09T09:39:18.063Z,23.63
2018-06-09T09:41:46.427Z,23.69
2018-06-09T09:44:14.857Z,23.69
2018-06-09T09:46:43.237Z,23.71
2018-06-09T09:49:11.589Z,23.68
2018-06-09T09:51:39.991Z,23.70
2018-06-09T09:54:08.339Z,23.71
2018-06-09T09:56:37.619Z,23.67
2018-06-09T09:59:06.032Z,23.66
2018-06-09T10:01:34.463Z,23.60
2018-06-09T10:04:02.819Z,23.59
2018-06-09T10:06:31.259Z,23.56
2018-06-09T10:08:59.591Z,23.59
2018-06-09T10:11:28.059Z,23.62
2018-06-09T10:13:56.423Z,23.67
2018-06-09T10:16:24.813Z,23.75
2018-06-09T10:18:53.156Z,23.79
2018-06-09T10:21:21.589Z,23.78
2018-06-09T10:23:49.976Z,23.82
2018-06-09T10:26:18.415Z,23.83
2018-06-09T10:28:46.782Z,23.85
2018-06-09T10:31:15.096Z,23.88
2018-06-09T10:33:43.420Z,23.91
2018-06-09T10:36:11.738Z,23.96
2018-06-09T10:38:40.773Z,23.99
2018-06-09T10:41:09.127Z,24.03
2018-06-09T10:43:37.616Z,24.10
2018-06-09T10:46:05.956Z,24.17
2018-06-09T10:48:34.367Z,24.36
2018-06-09T10:51:02.715Z,24.54
2018-06-09T10:53:31.038Z,24.81
2018-06-09T10:55:59.423Z,25.03
2018-06-09T10:58:27.768Z,25.24
2018-06-09T11:00:56.169Z,25.38
2018-06-09T11:03:24.523Z,25.54
2018-06-09T11:05:52.930Z,25.68
2018-06-09T11:08:21.278Z,25.79
2018-06-09T11:10:49.655Z,25.91
2018-06-09T11:13:18.096Z,26.07
2018-06-09T11:15:46.485Z,26.19
2018-06-09T11:18:14.802Z,26.37
2018-06-09T11:20:43.128Z,26.48
2018-06-09T11:23:11.624Z,26.57
2018-06-09T11:25:40.035Z,26.68
2018-06-09T11:28:08.626Z,26.73
2018-06-09T11:30:36.987Z,26.80
2018-06-09T11:33:05.376Z,26.90
2018-06-09T11:35:33.707Z,27.02
2018-06-09T11:38:02.117Z,27.06
2018-06-09T11:40:30.497Z,27.17
2018-06-09T11:42:58.896Z,27.38
2018-06-09T11:45:27.249Z,27.46
2018-06-09T11:47:55.707Z,27.54
2018-06-09T11:50:24.147Z,27.62
2018-06-09T11:52:52.584Z,27.71
2018-06-09T11:55:21.051Z,27.85
2018-06-09T11:57:49.441Z,28.02
2018-06-09T12:00:17.826Z,28.23
2018-06-09T12:02:46.151Z,28.32
2018-06-09T12:05:14.554Z,28.44
2018-06-09T12:07:42.991Z,28.49
2018-06-09T12:10:11.467Z,28.51
2018-06-09T12:12:40.960Z,28.51
2018-06-09T12:15:09.328Z,28.55
2018-06-09T12:17:37.675Z,28.63
2018-06-09T12:20:06.078Z,28.66
2018-06-09T12:22:34.431Z,28.64
2018-06-09T12:25:02.867Z,28.65
2018-06-09T12:27:31.235Z,28.63
2018-06-09T12:29:59.552Z,28.73
2018-06-09T12:32:27.941Z,28.78
2018-06-09T12:34:56.311Z,28.80
2018-06-09T12:37:24.791Z,28.84
2018-06-09T12:39:53.150Z,28.89
2018-06-09T12:42:21.706Z,29.01
2018-06-09T12:44:50.088Z,29.07
2018-06-09T12:47:18.384Z,29.16
2018-06-09T12:49:46.863Z,29.15
2018-06-09T12:52:15.259Z,29.09
2018-06-09T12:54:43.648Z,29.17
2018-06-09T12:57:12.052Z,29.15
2018-06-09T12:59:41.500Z,28.99
2018-06-09T13:02:09.948Z,28.97
2018-06-09T13:04:38.358Z,29.10
2018-06-09T13:07:07.068Z,29.11
2018-06-09T13:09:35.527Z,29.19
2018-06-09T13:12:03.934Z,29.23
2018-06-09T13:14:32.337Z,29.27
2018-06-09T13:17:00.719Z,29.35
2018-06-09T13:19:29.124Z,29.41
2018-06-09T13:21:57.437Z,29.42
2018-06-09T13:24:25.920Z,29.47
2018-06-09T13:26:54.320Z,29.43
2018-06-09T13:29:22.653Z,29.47
2018-06-09T13:31:51.010Z,29.53
2018-06-09T13:34:19.355Z,29.55
2018-06-09T13:36:47.750Z,29.53
2018-06-09T13:39:16.178Z,29.56
2018-06-09T13:41:45.075Z,29.55
2018-06-09T13:44:13.367Z,29.59
2018-06-09T13:46:42.036Z,29.59
2018-06-09T13:49:10.407Z,29.60
2018-06-09T13:51:38.716Z,29.68
2018-06-09T13:54:07.164Z,29.79
2018-06-09T13:56:35.615Z,29.91
2018-06-09T13:59:04.112Z,30.03
2018-06-09T14:01:32.494Z,30.12
2018-06-09T14:04:00.847Z,30.19
2018-06-09T14:06:29.199Z,30.22
2018-06-09T14:08:57.655Z,30.27
2018-06-09T14:11:26.040Z,30.35
2018-06-09T14:13:54.395Z,30.41
2018-06-09T14:16:22.759Z,30.40
2018-06-09T14:18:51.095Z,30.42
2018-06-09T14:21:19.495Z,30.41
2018-06-09T14:23:48.024Z,30.42
2018-06-09T14:26:16.468Z,30.38
2018-06-09T14:28:45.025Z,30.40
2018-06-09T14:31:13.424Z,30.42
2018-06-09T14:33:41.896Z,30.37
2018-06-09T14:36:10.470Z,30.44
2018-06-09T14:38:39.033Z,30.51
2018-06-09T14:41:16.293Z,30.57
2018-06-09T14:43:44.639Z,30.62
2018-06-09T14:46:13.054Z,30.61
2018-06-09T14:48:41.556Z,30.51
2018-06-09T14:51:09.919Z,30.32
2018-06-09T14:53:41.954Z,30.19
2018-06-09T14:56:11.604Z,30.16
2018-06-09T14:58:40.077Z,30.10
2018-06-09T15:01:08.549Z,30.02
2018-06-09T15:03:37.036Z,30.00
2018-06-09T15:06:05.466Z,29.93
2018-06-09T15:08:33.904Z,29.82
2018-06-09T15:11:02.320Z,29.85
2018-06-09T15:13:30.729Z,29.90
2018-06-09T15:15:59.113Z,29.98
2018-06-09T15:18:27.485Z,29.90
2018-06-09T15:20:55.906Z,29.91
2018-06-09T15:23:24.338Z,29.90
2018-06-09T15:25:52.681Z,29.94
2018-06-09T15:28:21.133Z,29.95
2018-06-09T15:30:49.520Z,30.02
2018-06-09T15:33:17.918Z,30.08
2018-06-09T15:35:46.350Z,30.12
2018-06-09T15:38:14.753Z,30.16
2018-06-09T15:40:43.105Z,30.23
2018-06-09T15:43:11.543Z,30.29
2018-06-09T15:45:39.930Z,30.43
2018-06-09T15:48:08.242Z,30.45
2018-06-09T15:50:36.671Z,30.46
2018-06-09T15:53:06.399Z,30.34
2018-06-09T15:55:34.775Z,30.36
2018-06-09T15:58:03.242Z,30.45
2018-06-09T16:00:31.647Z,30.56
2018-06-09T16:03:00.021Z,30.89
2018-06-09T16:05:28.482Z,31.26
2018-06-09T16:07:57.542Z,31.66
2018-06-09T16:10:25.870Z,31.99
2018-06-09T16:12:54.257Z,32.27
2018-06-09T16:15:22.671Z,32.53
2018-06-09T16:17:52.098Z,32.82
2018-06-09T16:20:20.480Z,33.07
2018-06-09T16:22:49.461Z,33.17
2018-06-09T16:25:18.344Z,33.15
2018-06-09T16:27:46.675Z,33.13
2018-06-09T16:30:15.110Z,33.17
2018-06-09T16:32:43.514Z,33.31
2018-06-09T16:35:11.892Z,33.30
2018-06-09T16:37:40.234Z,33.22
2018-06-09T16:40:08.567Z,33.05
2018-06-09T16:42:36.912Z,32.96
2018-06-09T16:45:05.282Z,32.82
2018-06-09T16:47:33.710Z,32.75
2018-06-09T16:50:02.039Z,32.89
2018-06-09T16:52:30.496Z,33.01
2018-06-09T16:54:58.864Z,33.04
2018-06-09T16:57:27.257Z,32.90
2018-06-09T16:59:56.367Z,32.74
2018-06-09T17:02:24.789Z,32.72
2018-06-09T17:04:53.257Z,32.68
2018-06-09T17:07:21.748Z,32.49
2018-06-09T17:09:50.139Z,32.30
2018-06-09T17:12:18.609Z,31.82
2018-06-09T17:14:47.077Z,31.28
2018-06-09T17:17:15.473Z,30.71
2018-06-09T17:19:43.912Z,30.20
2018-06-09T17:22:12.339Z,29.91
2018-06-09T17:24:40.743Z,29.67
2018-06-09T17:27:09.204Z,29.38
2018-06-09T17:29:37.564Z,29.19
2018-06-09T17:32:05.944Z,29.05
2018-06-09T17:34:34.456Z,28.96
2018-06-09T17:37:02.912Z,28.86
2018-06-09T17:39:31.291Z,28.78
2018-06-09T17:41:59.682Z,28.73
2018-06-09T17:44:28.102Z,28.63
2018-06-09T17:46:56.486Z,28.54
2018-06-09T17:49:25.084Z,28.45
2018-06-09T17:51:53.564Z,28.35
2018-06-09T17:54:22.072Z,28.28
2018-06-09T17:56:50.456Z,28.20
2018-06-09T17:59:18.868Z,28.13
2018-06-09T18:01:47.219Z,28.13
2018-06-09T18:04:16.381Z,28.12
2018-06-09T18:06:44.748Z,28.11
2018-06-09T18:09:13.099Z,28.17
2018-06-09T18:11:42.123Z,28.20
2018-06-09T18:14:10.500Z,28.18
2018-06-09T18:16:38.897Z,28.15
2018-06-09T18:19:07.212Z,28.14
2018-06-09T18:21:35.523Z,28.12
2018-06-09T18:24:03.983Z,28.05
2018-06-09T18:26:32.343Z,28.00
2018-06-09T18:29:00.677Z,27.92
2018-06-09T18:31:29.065Z,27.85
2018-06-09T18:33:57.415Z,27.78
2018-06-09T18:36:25.767Z,27.67
2018-06-09T18:38:54.728Z,27.56
2018-06-09T18:41:23.094Z,27.48
2018-06-09T18:43:51.457Z,27.43
2018-06-09T18:46:19.833Z,27.36
2018-06-09T18:48:48.307Z,27.26
2018-06-09T18:51:16.705Z,27.24
2018-06-09T18:53:45.110Z,27.22
2018-06-09T18:56:13.611Z,27.18
2018-06-09T18:58:42.146Z,27.11
2018-06-09T19:01:10.527Z,27.08
2018-06-09T19:03:39.008Z,27.03
2018-06-09T19:06:07.439Z,26.99
2018-06-09T19:08:35.928Z,26.94
2018-06-09T19:11:04.342Z,26.90
2018-06-09T19:13:32.863Z,26.88
2018-06-09T19:16:01.285Z,26.85
2018-06-09T19:18:29.660Z,26.76
2018-06-09T19:20:58.087Z,26.78
2018-06-09T19:23:27.173Z,26.75
2018-06-09T19:25:55.761Z,26.72
2018-06-09T19:28:24.155Z,26.70
2018-06-09T19:30:52.647Z,26.67
2018-06-09T19:33:21.059Z,26.63
2018-06-09T19:35:49.519Z,26.64
2018-06-09T19:38:17.910Z,26.61
2018-06-09T19:40:46.388Z,26.60
2018-06-09T19:43:14.832Z,26.58
2018-06-09T19:45:43.191Z,26.56
2018-06-09T19:48:11.578Z,26.53
2018-06-09T19:50:39.919Z,26.50
2018-06-09T19:53:08.385Z,26.47
2018-06-09T19:55:37.636Z,26.43
2018-06-09T19:58:06.329Z,26.39
2018-06-09T20:00:34.764Z,26.37
2018-06-09T20:03:03.657Z,26.35
2018-06-09T20:05:32.016Z,26.33
2018-06-09T20:08:00.446Z,26.28
2018-06-09T20:10:28.883Z,26.24
2018-06-09T20:12:57.355Z,26.24
2018-06-09T20:15:25.716Z,26.14
2018-06-09T20:17:54.088Z,26.11
2018-06-09T20:20:22.417Z,26.11
2018-06-09T20:22:50.794Z,26.10
2018-06-09T20:25:19.227Z,26.08
2018-06-09T20:27:47.682Z,26.05
2018-06-09T20:30:16.077Z,26.06
2018-06-09T20:32:44.478Z,26.03
2018-06-09T20:35:12.826Z,26.02
2018-06-09T20:37:41.214Z,26.03
2018-06-09T20:40:09.651Z,26.00
2018-06-09T20:42:38.027Z,25.98
2018-06-09T20:45:06.461Z,25.96
2018-06-09T20:47:34.861Z,25.94
2018-06-09T20:50:03.282Z,25.93
2018-06-09T20:52:31.676Z,25.92
2018-06-09T20:55:00.116Z,25.93
2018-06-09T20:57:28.575Z,25.90
2018-06-09T20:59:56.980Z,25.88
2018-06-09T21:02:25.414Z,25.87
2018-06-09T21:04:53.752Z,25.86
2018-06-09T21:07:22.583Z,25.84
2018-06-09T21:09:50.989Z,25.82
2018-06-09T21:12:19.399Z,25.82
2018-06-09T21:14:47.755Z,25.80
2018-06-09T21:17:16.107Z,25.79
2018-06-09T21:19:44.584Z,25.76
2018-06-09T21:22:12.952Z,25.75
2018-06-09T21:24:41.368Z,25.74
2018-06-09T21:27:14.953Z,25.74
2018-06-09T21:29:48.664Z,25.72
2018-06-09T21:32:22.419Z,25.69
2018-06-09T21:35:04.364Z,25.63
2018-06-09T21:37:40.024Z,25.37
2018-06-09T21:40:13.708Z,24.58
2018-06-09T21:42:44.318Z,24.03
2018-06-09T21:45:16.907Z,23.57
2018-06-09T21:47:45.304Z,23.17
2018-06-09T21:50:13.674Z,22.80
2018-06-09T21:52:42.081Z,22.65
2018-06-09T21:55:10.553Z,22.55
2018-06-09T21:57:38.998Z,22.34
2018-06-09T22:00:08.229Z,22.24
2018-06-09T22:02:36.682Z,21.98
2018-06-09T22:05:05.124Z,22.18
2018-06-09T22:07:33.527Z,22.18
2018-06-09T22:10:01.984Z,22.10
2018-06-09T22:12:30.983Z,21.95
2018-06-09T22:14:59.249Z,21.87
2018-06-09T22:17:28.865Z,21.71
2018-06-09T22:19:57.236Z,21.42
2018-06-09T22:22:25.679Z,21.23
2018-06-09T22:24:54.139Z,21.06
2018-06-09T22:27:22.586Z,21.12
2018-06-09T22:29:50.974Z,21.14
2018-06-09T22:32:19.295Z,21.20
2018-06-09T22:34:47.665Z,21.31
2018-06-09T22:37:16.219Z,21.47
2018-06-09T22:39:44.660Z,21.49
2018-06-09T22:42:13.007Z,21.42
2018-06-09T22:44:41.356Z,21.36
2018-06-09T22:47:09.761Z,21.29
2018-06-09T22:49:40.989Z,21.30
2018-06-09T22:52:09.379Z,21.32
2018-06-09T22:54:37.897Z,21.34
2018-06-09T22:57:06.284Z,21.17
2018-06-09T22:59:34.760Z,21.19
2018-06-09T23:02:03.628Z,21.11
2018-06-09T23:04:32.014Z,21.12
2018-06-09T23:07:00.539Z,21.13
2018-06-09T23:09:28.976Z,21.15
2018-06-09T23:11:57.416Z,21.17
2018-06-09T23:14:26.432Z,21.12
2018-06-09T23:16:55.130Z,21.09
2018-06-09T23:19:23.517Z,21.17
2018-06-09T23:21:51.893Z,21.17
2018-06-09T23:24:20.275Z,21.10
2018-06-09T23:26:48.755Z,21.18
2018-06-09T23:29:17.160Z,21.23
2018-06-09T23:31:45.551Z,21.27
2018-06-09T23:34:14.002Z,21.26
2018-06-09T23:36:42.360Z,21.24
2018-06-09T23:39:10.734Z,21.19
2018-06-09T23:41:39.158Z,21.25
2018-06-09T23:44:07.552Z,21.28
2018-06-09T23:46:35.951Z,21.33
2018-06-09T23:49:04.397Z,21.39
2018-06-09T23:51:32.744Z,21.38
2018-06-09T23:54:01.078Z,21.48
2018-06-09T23:56:29.572Z,21.56
2018-06-09T23:58:58.084Z,21.52
